Time;durP1;ratioP1;P1;durP2;ratioP2;P2;SDS_P1;SDS_P2;PMS_P1;PMS_P2;Temp;Humidity;BMP_temperature;BMP_pressure;BME280_temperature;BME280_humidity;BME280_pressure;Samples;Min_cycle;Max_cycle;Signal;HPM_P1;HPM_P2
2024/04/17 00:01:38;;;;;;;25.05;6.07;;;;;;;3.18;100.00;101045.53;5347851;26;20372;-68
2024/04/17 00:04:04;;;;;;;23.38;5.80;;;;;;;3.17;100.00;101043.75;5347675;26;20078;-67
2024/04/17 00:06:29;;;;;;;23.98;6.15;;;;;;;3.08;100.00;101041.66;5347855;26;20009;-68
2024/04/17 00:08:54;;;;;;;23.70;5.72;;;;;;;3.11;100.00;101032.22;5345704;26;20465;-68
2024/04/17 00:11:20;;;;;;;23.00;5.57;;;;;;;3.07;100.00;101037.25;5347904;26;20024;-68
2024/04/17 00:13:46;;;;;;;24.23;5.90;;;;;;;3.00;100.00;101030.94;5347224;26;20016;-67
2024/04/17 00:16:11;;;;;;;22.77;5.47;;;;;;;3.00;100.00;101033.56;5347251;26;20355;-72
2024/04/17 00:18:37;;;;;;;23.95;5.85;;;;;;;2.90;100.00;101031.41;5347736;26;20075;-72
2024/04/17 00:21:02;;;;;;;24.52;6.10;;;;;;;2.88;100.00;101033.94;5347418;26;20000;-70
2024/04/17 00:23:27;;;;;;;21.00;5.60;;;;;;;2.85;100.00;101038.16;5347236;26;19993;-69
2024/04/17 00:25:53;;;;;;;23.13;5.75;;;;;;;2.83;100.00;101037.25;5347228;26;20001;-72
2024/04/17 00:28:18;;;;;;;23.80;5.68;;;;;;;2.76;100.00;101033.47;5347518;26;20432;-71
2024/04/17 00:30:45;;;;;;;23.70;5.85;;;;;;;2.75;100.00;101036.91;5347176;26;20459;-71
2024/04/17 00:33:11;;;;;;;26.38;6.05;;;;;;;2.75;100.00;101037.81;5347746;26;20512;-71
2024/04/17 00:35:36;;;;;;;24.83;6.30;;;;;;;2.73;100.00;101039.47;5346950;26;20001;-67
2024/04/17 00:38:01;;;;;;;24.00;6.30;;;;;;;2.70;100.00;101038.47;5347151;26;19997;-67
2024/04/17 00:40:32;;;;;;;23.08;6.05;;;;;;;2.73;100.00;101043.81;5347231;26;20075;-68
2024/04/17 00:42:59;;;;;;;25.17;6.32;;;;;;;2.67;100.00;101038.34;5347192;26;20004;-67
2024/04/17 00:45:30;;;;;;;25.17;6.35;;;;;;;2.60;100.00;101042.44;5347082;26;20008;-67
2024/04/17 00:47:55;;;;;;;25.40;6.35;;;;;;;2.55;100.00;101042.25;5347367;26;19997;-67
2024/04/17 00:50:21;;;;;;;26.63;6.65;;;;;;;2.53;100.00;101049.09;5347296;26;20008;-71
2024/04/17 00:52:46;;;;;;;23.70;6.40;;;;;;;2.46;100.00;101033.16;5347039;26;19997;-70
2024/04/17 00:55:12;;;;;;;26.60;6.78;;;;;;;2.47;100.00;101045.38;5345439;26;20336;-67
2024/04/17 00:57:38;;;;;;;22.98;7.00;;;;;;;2.41;100.00;101041.69;5347008;26;20003;-67
2024/04/17 01:00:04;;;;;;;26.38;7.22;;;;;;;2.37;100.00;101034.53;5346590;26;20070;-66
2024/04/17 01:02:30;;;;;;;24.08;6.70;;;;;;;2.37;100.00;101031.06;5347123;26;19992;-67
2024/04/17 01:04:55;;;;;;;23.75;6.70;;;;;;;2.31;100.00;101034.31;5346638;26;20506;-66
2024/04/17 01:07:20;;;;;;;27.17;7.28;;;;;;;2.29;100.00;101029.84;5346581;26;19997;-67
2024/04/17 01:09:46;;;;;;;27.50;7.57;;;;;;;2.19;100.00;101033.81;5347101;26;20078;-67
2024/04/17 01:12:11;;;;;;;24.75;7.18;;;;;;;2.15;100.00;101035.38;5346891;26;20065;-70
2024/04/17 01:14:36;;;;;;;24.13;7.35;;;;;;;2.11;100.00;101030.88;5346734;26;20009;-66
2024/04/17 01:17:02;;;;;;;28.48;7.13;;;;;;;2.08;100.00;101034.25;5346762;26;19992;-67
2024/04/17 01:19:29;;;;;;;24.75;7.18;;;;;;;1.97;100.00;101040.75;5345683;26;20001;-67
2024/04/17 01:21:54;;;;;;;22.70;6.50;;;;;;;1.92;100.00;101031.81;5346962;26;20003;-67
2024/04/17 01:24:20;;;;;;;24.58;7.53;;;;;;;1.98;100.00;101039.00;5346349;26;20336;-66
2024/04/17 01:26:45;;;;;;;23.65;7.55;;;;;;;1.88;100.00;101035.16;5346082;26;20007;-71
2024/04/17 01:29:11;;;;;;;25.00;7.57;;;;;;;1.85;100.00;101028.06;5346471;26;20008;-71
2024/04/17 01:31:36;;;;;;;26.15;8.68;;;;;;;1.81;100.00;101033.97;5346436;26;20003;-70
2024/04/17 01:34:01;;;;;;;25.38;7.47;;;;;;;1.78;100.00;101025.13;5346570;26;20000;-67
2024/04/17 01:36:27;;;;;;;26.80;8.05;;;;;;;1.68;100.00;101024.72;5346523;26;20004;-69
2024/04/17 01:38:52;;;;;;;28.35;7.88;;;;;;;1.67;100.00;101022.94;5346372;26;19997;-71
2024/04/17 01:41:18;;;;;;;27.05;8.15;;;;;;;1.68;100.00;101021.25;5345943;26;20005;-71
2024/04/17 01:43:43;;;;;;;26.38;7.72;;;;;;;1.72;100.00;101025.78;5346429;26;20012;-70
2024/04/17 01:46:08;;;;;;;26.85;7.93;;;;;;;1.77;100.00;101026.84;5345888;26;20424;-70
2024/04/17 01:48:34;;;;;;;27.05;7.75;;;;;;;1.78;100.00;101019.91;5346175;26;20008;-69
2024/04/17 01:50:59;;;;;;;25.90;7.60;;;;;;;1.78;100.00;101019.91;5344690;26;20004;-70
2024/04/17 01:53:24;;;;;;;25.10;8.18;;;;;;;1.76;100.00;101014.63;5345985;26;20052;-73
2024/04/17 01:55:50;;;;;;;26.95;7.90;;;;;;;1.72;100.00;101017.94;5346341;26;20459;-72
2024/04/17 01:58:15;;;;;;;24.65;7.90;;;;;;;1.71;100.00;101019.66;5345940;26;19993;-72
2024/04/17 02:00:40;;;;;;;27.70;8.38;;;;;;;1.72;100.00;101024.03;5345820;26;20012;-72
2024/04/17 02:03:06;;;;;;;25.73;8.43;;;;;;;1.74;100.00;101024.09;5345802;26;20067;-71
2024/04/17 02:05:32;;;;;;;27.33;8.18;;;;;;;1.85;100.00;101019.34;5346090;26;20012;-68
2024/04/17 02:07:57;;;;;;;30.02;8.85;;;;;;;1.82;100.00;101017.53;5345527;26;19993;-72
2024/04/17 02:10:23;;;;;;;26.38;7.85;;;;;;;1.89;100.00;101029.09;5345793;26;20016;-71
2024/04/17 02:12:48;;;;;;;26.42;8.05;;;;;;;1.86;100.00;101024.63;5345755;26;20001;-71
2024/04/17 02:15:14;;;;;;;25.25;8.05;;;;;;;1.85;100.00;101019.34;5345687;26;20029;-67
2024/04/17 02:17:39;;;;;;;28.10;8.20;;;;;;;1.90;100.00;101018.72;5345609;26;20004;-67
2024/04/17 02:20:05;;;;;;;26.73;8.05;;;;;;;1.92;100.00;101019.69;5345510;26;20012;-71
2024/04/17 02:22:30;;;;;;;28.73;9.25;;;;;;;2.04;100.00;101019.31;5345625;26;19996;-68
2024/04/17 02:24:56;;;;;;;27.83;8.23;;;;;;;2.06;100.00;101022.84;5345566;26;20009;-68
2024/04/17 02:27:21;;;;;;;27.70;8.43;;;;;;;2.13;100.00;101023.13;5343717;26;19997;-68
2024/04/17 02:29:47;;;;;;;24.90;8.00;;;;;;;2.19;100.00;101034.69;5345434;26;20380;-69
2024/04/17 02:32:13;;;;;;;26.38;8.18;;;;;;;2.26;100.00;101031.50;5348143;26;19993;-65
2024/04/17 02:34:38;;;;;;;25.40;8.73;;;;;;;2.32;100.00;101036.09;5348980;26;20012;-65
2024/04/17 02:37:04;;;;;;;26.63;8.90;;;;;;;2.45;100.00;101040.09;5349053;26;19993;-64
2024/04/17 02:39:29;;;;;;;26.85;9.45;;;;;;;2.55;100.00;101042.25;5348645;26;20005;-67
2024/04/17 02:41:55;;;;;;;26.33;9.00;;;;;;;2.66;100.00;101041.78;5348890;26;20387;-65
2024/04/17 02:44:20;;;;;;;28.30;9.10;;;;;;;2.67;100.00;101044.44;5342000;26;20000;-65
2024/04/17 02:46:46;;;;;;;27.35;9.07;;;;;;;2.72;100.00;101036.78;5348713;26;19993;-70
2024/04/17 02:49:11;;;;;;;27.02;9.73;;;;;;;2.76;100.00;101041.31;5348698;26;20063;-66
2024/04/17 02:51:36;;;;;;;26.30;8.93;;;;;;;2.83;100.00;101040.72;5348928;26;19997;-65
2024/04/17 02:54:02;;;;;;;27.02;8.68;;;;;;;2.96;100.00;101042.09;5348761;26;20328;-65
2024/04/17 02:56:27;;;;;;;25.85;8.85;;;;;;;3.02;100.00;101037.09;5348493;26;20070;-65
2024/04/17 02:58:52;;;;;;;24.92;8.50;;;;;;;3.01;100.00;101040.53;5348481;26;19997;-67
2024/04/17 03:01:18;;;;;;;25.10;8.40;;;;;;;3.04;100.00;101038.03;5348492;26;19996;-65
2024/04/17 03:03:43;;;;;;;27.27;9.10;;;;;;;3.05;100.00;101032.00;5348423;26;19997;-65
2024/04/17 03:06:09;;;;;;;25.73;8.40;;;;;;;3.09;100.00;101036.50;5348622;26;20010;-65
2024/04/17 03:08:34;;;;;;;23.75;8.20;;;;;;;3.14;100.00;101032.31;5348488;26;20000;-70
2024/04/17 03:11:01;;;;;;;24.02;7.82;;;;;;;3.19;100.00;101029.91;5348686;26;20008;-66
2024/04/17 03:13:27;;;;;;;24.08;7.75;;;;;;;3.20;100.00;101021.22;5348674;26;20013;-66
2024/04/17 03:15:52;;;;;;;24.27;7.88;;;;;;;3.20;100.00;101026.44;5348392;26;19993;-66
2024/04/17 03:18:18;;;;;;;25.00;7.65;;;;;;;3.23;100.00;101021.34;5348416;26;20001;-66
2024/04/17 03:20:43;;;;;;;23.02;7.90;;;;;;;3.25;100.00;101030.13;5348207;26;20001;-66
2024/04/17 03:23:08;;;;;;;25.20;7.97;;;;;;;3.25;100.00;101029.25;5348436;26;20075;-65
2024/04/17 03:25:34;;;;;;;23.30;7.93;;;;;;;3.27;100.00;101038.03;5347922;26;19993;-65
2024/04/17 03:27:59;;;;;;;24.13;7.95;;;;;;;3.28;100.00;101030.25;5348315;26;20074;-70
2024/04/17 03:30:25;;;;;;;22.63;7.82;;;;;;;3.30;100.00;101039.00;5348215;26;20092;-67
2024/04/17 03:32:50;;;;;;;23.83;7.70;;;;;;;3.33;100.00;101035.63;5348069;26;20008;-66
2024/04/17 03:35:16;;;;;;;21.95;7.70;;;;;;;3.36;100.00;101040.09;5348171;26;20005;-69
2024/04/17 03:37:41;;;;;;;22.10;7.80;;;;;;;3.39;100.00;101040.19;5348015;26;20444;-68
2024/04/17 03:40:07;;;;;;;22.67;7.80;;;;;;;3.42;100.00;101041.22;5348236;26;19992;-66
2024/04/17 03:42:32;;;;;;;23.67;8.38;;;;;;;3.45;100.00;101043.03;5347466;26;20001;-66
2024/04/17 03:44:58;;;;;;;22.48;7.78;;;;;;;3.48;100.00;101045.75;5348015;26;20007;-66
2024/04/17 03:47:24;;;;;;;24.95;7.97;;;;;;;3.53;100.00;101051.16;5348162;26;20001;-67
2024/04/17 03:49:49;;;;;;;22.77;7.28;;;;;;;3.58;100.00;101049.59;5347863;26;20001;-66
2024/04/17 03:52:14;;;;;;;21.50;7.30;;;;;;;3.64;100.00;101057.66;5348133;26;19997;-66
2024/04/17 03:54:39;;;;;;;21.60;7.35;;;;;;;3.66;100.00;101058.63;5347581;26;20000;-66
2024/04/17 03:57:05;;;;;;;20.73;7.30;;;;;;;3.69;100.00;101058.72;5317356;26;19997;-65
2024/04/17 03:59:30;;;;;;;20.02;6.60;;;;;;;3.72;100.00;101061.44;5347675;26;20003;-65
2024/04/17 04:01:56;;;;;;;20.17;6.88;;;;;;;3.78;100.00;101066.88;5347689;26;19997;-65
2024/04/17 04:04:21;;;;;;;19.50;6.53;;;;;;;3.83;100.00;101072.31;5340339;26;20000;-66
2024/04/17 04:06:46;;;;;;;20.50;7.35;;;;;;;3.88;100.00;101075.06;5347955;26;19997;-70
2024/04/17 04:09:12;;;;;;;22.25;7.32;;;;;;;3.90;100.00;101076.88;5347301;26;20001;-71
2024/04/17 04:11:38;;;;;;;23.10;7.63;;;;;;;3.93;100.00;101082.25;5347381;26;20332;-66
2024/04/17 04:14:04;;;;;;;19.88;7.10;;;;;;;3.91;100.00;101081.28;5347515;26;20000;-66
2024/04/17 04:16:30;;;;;;;19.92;7.38;;;;;;;3.87;100.00;101078.50;5347385;26;20008;-66
2024/04/17 04:18:55;;;;;;;21.25;7.60;;;;;;;3.83;100.00;101077.53;5347410;26;20363;-66
2024/04/17 04:21:21;;;;;;;20.38;7.55;;;;;;;3.84;100.00;101079.28;5347761;26;19993;-71
2024/04/17 04:23:49;;;;;;;21.33;7.68;;;;;;;3.86;100.00;101081.94;5347675;26;20416;-70
2024/04/17 04:26:14;;;;;;;20.33;7.25;;;;;;;3.87;100.00;101078.50;5347036;26;20152;-68
2024/04/17 04:28:40;;;;;;;19.15;6.78;;;;;;;3.86;100.00;101081.94;5347446;26;20012;-67
2024/04/17 04:31:06;;;;;;;20.15;6.88;;;;;;;3.84;100.00;101082.81;5347393;26;20320;-71
2024/04/17 04:33:32;;;;;;;19.20;6.90;;;;;;;3.82;100.00;101074.00;5347554;26;20029;-69
2024/04/17 04:35:57;;;;;;;20.92;7.28;;;;;;;3.82;100.00;101083.59;5347667;26;19993;-71
2024/04/17 04:38:23;;;;;;;20.92;7.47;;;;;;;3.84;100.00;101080.19;5347130;26;20016;-70
2024/04/17 04:40:49;;;;;;;21.15;7.40;;;;;;;3.83;100.00;101073.19;5347204;26;19992;-71
2024/04/17 04:43:14;;;;;;;20.05;6.95;;;;;;;3.86;100.00;101071.50;5345565;26;20044;-70
2024/04/17 04:45:39;;;;;;;20.40;7.38;;;;;;;3.88;100.00;101078.56;5346805;26;20024;-71
2024/04/17 04:48:05;;;;;;;21.35;7.68;;;;;;;3.89;100.00;101082.97;5347477;26;20000;-67
2024/04/17 04:50:30;;;;;;;21.52;8.73;;;;;;;3.94;100.00;101081.38;5345477;26;20340;-69
2024/04/17 04:52:56;;;;;;;22.50;10.75;;;;;;;3.93;100.00;101071.78;5346775;26;20001;-71
2024/04/17 04:55:21;;;;;;;24.58;11.80;;;;;;;3.98;100.00;101074.56;5346476;26;19997;-72
2024/04/17 04:57:47;;;;;;;24.85;12.25;;;;;;;4.00;100.00;101070.25;5347100;26;20011;-72
2024/04/17 05:00:12;;;;;;;24.90;13.15;;;;;;;4.03;100.00;101067.75;5346959;26;20001;-71
2024/04/17 05:02:38;;;;;;;27.08;14.13;;;;;;;4.01;100.00;101074.66;5347180;26;20451;-71
2024/04/17 05:05:04;;;;;;;27.00;15.82;;;;;;;4.01;100.00;101082.50;5344932;26;20005;-70
2024/04/17 05:07:29;;;;;;;26.92;15.68;;;;;;;4.04;100.00;101086.97;5389192;26;20007;-70
2024/04/17 05:09:54;;;;;;;29.23;16.48;;;;;;;4.09;100.00;101083.69;5346888;26;20037;-67
2024/04/17 05:12:20;;;;;;;28.15;15.77;;;;;;;4.08;100.00;101079.28;5345158;26;20016;-71
2024/04/17 05:14:45;;;;;;;26.90;15.07;;;;;;;4.08;100.00;101087.13;5345258;26;20005;-72
2024/04/17 05:17:10;;;;;;;28.20;14.98;;;;;;;4.08;100.00;101080.97;5346437;26;19997;-71
2024/04/17 05:19:36;;;;;;;27.38;14.93;;;;;;;4.07;100.00;101069.63;5344485;26;20024;-69
2024/04/17 05:22:01;;;;;;;26.83;14.27;;;;;;;4.09;100.00;101070.59;5345207;26;19997;-71
2024/04/17 05:24:26;;;;;;;26.42;13.85;;;;;;;4.10;100.00;101071.47;5346582;26;20004;-71
2024/04/17 05:26:52;;;;;;;25.52;13.50;;;;;;;4.12;100.00;101069.78;5346179;26;20336;-69
2024/04/17 05:29:17;;;;;;;26.10;13.25;;;;;;;4.08;100.00;101074.03;5344721;26;20075;-71
2024/04/17 05:31:44;;;;;;;25.23;13.02;;;;;;;4.11;100.00;101074.13;5346524;26;20001;-66
2024/04/17 05:34:09;;;;;;;25.23;13.38;;;;;;;4.12;100.00;101070.69;5346206;26;20079;-70
2024/04/17 05:36:36;;;;;;;25.10;13.07;;;;;;;4.17;100.00;101076.06;5346539;26;20452;-67
2024/04/17 05:39:02;;;;;;;24.58;11.98;;;;;;;4.18;100.00;101072.63;5346416;26;19997;-70
2024/04/17 05:41:27;;;;;;;25.48;11.75;;;;;;;4.18;100.00;101076.13;5346302;26;20008;-68
2024/04/17 05:43:52;;;;;;;25.60;11.60;;;;;;;4.21;100.00;101077.06;5346448;26;20325;-69
2024/04/17 05:46:18;;;;;;;24.48;10.90;;;;;;;4.23;100.00;101078.00;5346132;26;20004;-66
2024/04/17 05:48:43;;;;;;;23.05;9.82;;;;;;;4.25;100.00;101072.00;5344434;26;20447;-71
2024/04/17 05:51:08;;;;;;;23.25;9.40;;;;;;;4.18;100.00;101076.13;5346417;26;20008;-67
2024/04/17 05:53:34;;;;;;;21.38;8.38;;;;;;;4.12;100.00;101069.78;5346084;26;20421;-69
2024/04/17 05:55:59;;;;;;;21.77;7.72;;;;;;;4.06;100.00;101078.31;5346119;26;20008;-70
2024/04/17 05:58:24;;;;;;;20.02;7.63;;;;;;;4.00;100.00;101076.41;5345914;26;20012;-66
2024/04/17 06:00:50;;;;;;;21.83;7.75;;;;;;;3.91;100.00;101080.41;5345669;26;19997;-67
2024/04/17 06:03:15;;;;;;;21.00;7.35;;;;;;;3.90;100.00;101079.50;5345814;26;19997;-66
2024/04/17 06:05:40;;;;;;;21.23;7.25;;;;;;;3.94;100.00;101084.00;5390022;26;20312;-66
2024/04/17 06:08:06;;;;;;;22.60;7.28;;;;;;;3.98;100.00;101088.50;5348913;26;20037;-67
2024/04/17 06:10:31;;;;;;;20.95;7.40;;;;;;;4.02;100.00;101089.53;5349302;26;20393;-70
2024/04/17 06:12:57;;;;;;;21.25;7.35;;;;;;;3.99;100.00;101081.53;5349272;26;20007;-70
2024/04/17 06:15:22;;;;;;;21.75;7.20;;;;;;;3.99;100.00;101089.41;5348926;26;19993;-70
2024/04/17 06:17:47;;;;;;;22.25;8.02;;;;;;;3.95;100.00;101084.91;5349340;26;20002;-71
2024/04/17 06:20:13;;;;;;;21.63;7.78;;;;;;;3.94;100.00;101081.38;5349005;26;20003;-72
2024/04/17 06:22:38;;;;;;;21.33;7.70;;;;;;;4.01;100.00;101090.34;5349096;26;19997;-67
2024/04/17 06:25:04;;;;;;;21.50;8.23;;;;;;;4.11;100.00;101095.06;5348828;26;20331;-68
2024/04/17 06:27:29;;;;;;;22.67;8.75;;;;;;;4.21;100.00;101090.13;5348956;26;20365;-67
2024/04/17 06:29:55;;;;;;;22.25;8.80;;;;;;;4.19;100.00;101090.09;5349263;26;20004;-70
2024/04/17 06:32:21;;;;;;;21.05;8.80;;;;;;;4.26;100.00;101088.59;5349123;26;20008;-69
2024/04/17 06:34:46;;;;;;;23.55;8.95;;;;;;;4.32;100.00;101089.66;5348964;26;19997;-70
2024/04/17 06:37:11;;;;;;;23.40;8.75;;;;;;;4.42;100.00;101090.88;5349155;26;20005;-69
2024/04/17 06:39:37;;;;;;;22.95;9.18;;;;;;;4.52;100.00;101092.94;5348894;26;20428;-71
2024/04/17 06:42:02;;;;;;;23.38;9.15;;;;;;;4.52;100.00;101095.56;5348776;26;20008;-71
2024/04/17 06:44:28;;;;;;;22.25;9.70;;;;;;;4.63;100.00;101100.25;5348876;26;20066;-71
2024/04/17 06:46:53;;;;;;;22.73;9.48;;;;;;;4.60;100.00;101092.31;5346796;26;20010;-69
2024/04/17 06:49:19;;;;;;;22.45;8.95;;;;;;;4.68;100.00;101091.72;5340870;26;20083;-70
2024/04/17 06:51:44;;;;;;;21.80;9.05;;;;;;;4.75;100.00;101089.28;5348977;26;20074;-72
2024/04/17 06:54:09;;;;;;;22.38;9.00;;;;;;;4.83;100.00;101093.94;5317845;26;20428;-71
2024/04/17 06:56:35;;;;;;;21.80;8.57;;;;;;;4.90;100.00;101095.03;5348420;26;20440;-70
2024/04/17 06:59:00;;;;;;;22.33;9.30;;;;;;;5.03;100.00;101086.72;5348404;26;20501;-71
2024/04/17 07:01:28;;;;;;;23.60;9.43;;;;;;;5.18;100.00;101085.41;5348785;26;20012;-70
2024/04/17 07:03:54;;;;;;;22.70;8.63;;;;;;;5.23;100.00;101089.06;5342146;26;19993;-69
2024/04/17 07:06:19;;;;;;;20.42;6.82;;;;;;;5.31;100.00;101084.91;5348756;26;20012;-70
2024/04/17 07:08:44;;;;;;;22.67;7.20;;;;;;;5.47;100.00;101085.38;5348533;26;20025;-70
2024/04/17 07:11:10;;;;;;;22.13;7.28;;;;;;;5.55;100.00;101092.63;5361476;26;19997;-71
2024/04/17 07:13:35;;;;;;;22.08;6.78;;;;;;;5.61;100.00;101091.00;5348410;26;20001;-73
2024/04/17 07:16:01;;;;;;;19.23;6.15;;;;;;;5.72;100.00;101080.00;5348023;26;20071;-71
2024/04/17 07:18:26;;;;;;;22.63;6.50;;;;;;;5.84;100.00;101073.28;5347727;26;20098;-72
2024/04/17 07:20:52;;;;;;;20.40;6.00;;;;;;;5.99;100.00;101084.25;5341277;26;20074;-71
2024/04/17 07:23:17;;;;;;;19.70;5.30;;;;;;;6.14;100.00;101078.50;5348983;26;19997;-71
2024/04/17 07:25:43;;;;;;;20.20;5.38;;;;;;;6.30;100.00;101069.28;5348267;26;20001;-71
2024/04/17 07:28:08;;;;;;;19.70;4.90;;;;;;;6.37;100.00;101075.59;5348271;26;20012;-71
2024/04/17 07:30:40;;;;;;;19.48;4.60;;;;;;;6.54;100.00;101063.78;5348273;26;20043;-71
2024/04/17 07:33:06;;;;;;;20.45;5.07;;;;;;;6.67;100.00;101064.06;5348474;26;19993;-68
2024/04/17 07:35:31;;;;;;;20.60;4.10;;;;;;;6.80;100.00;101056.50;5348172;26;20005;-71
2024/04/17 07:37:57;;;;;;;19.25;3.83;;;;;;;6.87;100.00;101051.38;5347870;26;20076;-67
2024/04/17 07:40:22;;;;;;;16.52;3.53;;;;;;;7.13;100.00;101044.94;5341412;26;19997;-68
2024/04/17 07:42:47;;;;;;;19.02;3.85;;;;;;;7.35;100.00;101042.78;5348158;26;20004;-69
2024/04/17 07:45:13;;;;;;;19.75;3.92;;;;;;;7.72;100.00;101040.00;5347606;26;20007;-71
2024/04/17 07:47:39;;;;;;;18.58;3.65;;;;;;;8.03;100.00;101041.47;5348291;26;20007;-68
2024/04/17 07:50:05;;;;;;;17.45;3.28;;;;;;;8.08;100.00;101036.28;5347795;26;20017;-68
2024/04/17 07:52:30;;;;;;;15.00;2.97;;;;;;;8.07;100.00;101038.03;5347615;26;20091;-70
2024/04/17 07:54:56;;;;;;;18.25;3.20;;;;;;;7.96;100.00;101045.72;5346481;26;19997;-68
2024/04/17 07:57:22;;;;;;;14.05;3.00;;;;;;;7.97;100.00;101039.59;5347643;26;19996;-67
2024/04/17 07:59:47;;;;;;;18.73;2.83;;;;;;;8.24;100.00;101034.78;5347557;26;20444;-67
2024/04/17 08:02:12;;;;;;;19.65;3.47;;;;;;;8.41;100.00;101038.59;5347970;26;20004;-67
2024/04/17 08:04:38;;;;;;;18.52;3.25;;;;;;;8.62;100.00;101039.81;5347899;26;19993;-67
2024/04/17 08:07:04;;;;;;;17.15;3.10;;;;;;;8.65;100.00;101042.50;5345904;26;20007;-66
2024/04/17 08:09:29;;;;;;;18.02;2.83;;;;;;;8.60;100.00;101037.16;5347508;26;20008;-71
2024/04/17 08:11:54;;;;;;;15.93;2.97;;;;;;;8.53;100.00;101032.66;5347794;26;20001;-70
2024/04/17 08:14:20;;;;;;;16.17;2.97;;;;;;;8.49;100.00;101036.09;5347500;26;20066;-69
2024/04/17 08:16:48;;;;;;;18.17;3.05;;;;;;;8.46;100.00;101038.69;5347266;26;19997;-67
2024/04/17 08:19:13;;;;;;;17.10;2.97;;;;;;;9.15;100.00;101033.56;5347147;26;20004;-69
2024/04/17 08:21:38;;;;;;;20.98;3.40;;;;;;;9.72;100.00;101036.88;5347854;26;20001;-70
2024/04/17 08:24:05;;;;;;;17.73;3.45;;;;;;;9.90;100.00;101033.53;5347200;26;20001;-66
2024/04/17 08:26:30;;;;;;;15.43;3.22;;;;;;;10.37;100.00;101037.53;5347135;26;20009;-67
2024/04/17 08:28:55;;;;;;;15.40;3.10;;;;;;;10.96;100.00;101037.06;5347421;26;20349;-69
2024/04/17 08:31:21;;;;;;;15.63;2.90;;;;;;;10.97;100.00;101035.31;5317141;26;19997;-67
2024/04/17 08:33:46;;;;;;;16.77;2.88;;;;;;;10.30;100.00;101042.72;5347507;26;20452;-68
2024/04/17 08:36:11;;;;;;;16.67;3.03;;;;;;;9.74;100.00;101038.69;5347493;26;20005;-67
2024/04/17 08:38:37;;;;;;;15.82;2.70;;;;;;;9.57;100.00;101038.47;5347128;26;19996;-68
2024/04/17 08:41:02;;;;;;;16.70;2.95;;;;;;;10.07;100.00;101033.72;5347139;26;20004;-67
2024/04/17 08:43:27;;;;;;;16.52;2.70;;;;;;;9.80;100.00;101050.16;5347371;26;20008;-70
2024/04/17 08:45:54;;;;;;;13.75;2.60;;;;;;;9.33;100.00;101035.53;5345415;26;19997;-71
2024/04/17 08:48:21;;;;;;;15.52;2.80;;;;;;;9.01;100.00;101031.63;5347353;26;19997;-71
2024/04/17 08:50:47;;;;;;;13.98;2.80;;;;;;;8.87;100.00;101044.59;5345247;26;20007;-71
2024/04/17 08:53:17;;;;;;;11.95;2.50;;;;;;;8.73;100.00;101049.66;5347209;26;20004;-68
2024/04/17 08:55:44;;;;;;;14.43;2.83;;;;;;;8.62;100.00;101042.47;5347022;26;20001;-67
2024/04/17 08:58:10;;;;;;;17.23;2.70;;;;;;;8.72;100.00;101041.72;5346989;26;20039;-68
2024/04/17 09:00:38;;;;;;;13.30;2.60;;;;;;;9.24;100.00;101046.88;5346745;26;20432;-66
2024/04/17 09:03:07;;;;;;;9.23;2.08;;;;;;;9.39;100.00;101025.97;5346892;26;19997;-67
2024/04/17 09:05:33;;;;;;;9.25;2.10;;;;;;;8.13;100.00;101076.75;5346836;26;20000;-66
2024/04/17 09:08:00;;;;;;;7.70;2.00;;;;;;;7.18;100.00;101073.09;5346518;26;19996;-66
2024/04/17 09:10:26;;;;;;;3.70;2.20;;;;;;;6.89;100.00;101075.97;5345157;26;20448;-67
2024/04/17 09:12:51;;;;;;;5.50;2.00;;;;;;;6.43;100.00;101102.00;5346886;26;19997;-66
2024/04/17 09:15:18;;;;;;;6.22;2.00;;;;;;;6.08;100.00;101099.34;5346423;26;20074;-67
2024/04/17 09:17:45;;;;;;;6.38;2.10;;;;;;;5.98;100.00;101108.69;5346572;26;19997;-69
2024/04/17 09:20:13;;;;;;;4.05;1.80;;;;;;;5.84;100.00;101110.94;5346850;26;20070;-70
2024/04/17 09:22:39;;;;;;;4.38;2.00;;;;;;;5.74;100.00;101101.91;5346668;26;20004;-69
2024/04/17 09:25:15;;;;;;;2.53;1.92;;;;;;;5.74;100.00;101103.66;5346604;26;20046;-68
2024/04/17 09:27:40;;;;;;;5.53;2.00;;;;;;;5.40;100.00;101111.44;5346905;26;19996;-67
2024/04/17 09:30:06;;;;;;;4.90;2.05;;;;;;;5.28;100.00;101112.78;5346267;26;20008;-66
2024/04/17 09:32:31;;;;;;;6.20;2.10;;;;;;;5.20;100.00;101109.94;5346513;26;20348;-66
2024/04/17 09:34:57;;;;;;;4.65;2.22;;;;;;;5.06;100.00;101126.09;5346779;26;20001;-65
2024/04/17 09:37:22;;;;;;;6.78;2.20;;;;;;;4.95;100.00;101109.19;5346622;26;20001;-71
2024/04/17 09:39:48;;;;;;;4.18;2.00;;;;;;;4.78;100.00;101119.13;5346322;26;20005;-71
2024/04/17 09:42:16;;;;;;;5.47;2.00;;;;;;;4.80;100.00;101127.03;5348174;26;20472;-70
2024/04/17 09:44:44;;;;;;;6.43;2.10;;;;;;;4.69;100.00;101122.31;5388572;26;20015;-71
2024/04/17 09:47:11;;;;;;;3.88;2.00;;;;;;;4.57;100.00;101135.00;5348767;26;20001;-66
2024/04/17 09:49:42;;;;;;;4.97;2.03;;;;;;;4.68;100.00;101127.50;5349635;26;20000;-68
2024/04/17 09:52:12;;;;;;;4.68;2.10;;;;;;;4.74;100.00;101125.09;5349316;26;20482;-67
2024/04/17 09:54:38;;;;;;;4.82;2.10;;;;;;;4.74;100.00;101108.50;5349488;26;20001;-68
2024/04/17 09:57:04;;;;;;;5.35;2.20;;;;;;;5.00;100.00;101096.22;5349338;26;19993;-66
2024/04/17 09:59:30;;;;;;;6.15;2.20;;;;;;;5.19;100.00;101082.81;5349324;26;20011;-67
2024/04/17 10:01:57;;;;;;;2.92;2.00;;;;;;;5.40;100.00;101081.69;5347504;26;20008;-68
2024/04/17 10:04:24;;;;;;;2.22;2.00;;;;;;;5.73;100.00;101076.50;5343566;26;20001;-67
2024/04/17 10:06:50;;;;;;;3.67;1.92;;;;;;;5.90;100.00;101073.47;5346196;26;20428;-66
2024/04/17 10:09:18;;;;;;;5.28;2.10;;;;;;;5.96;100.00;101076.25;5347287;26;20004;-70
2024/04/17 10:11:50;;;;;;;4.72;2.00;;;;;;;6.23;100.00;101076.13;5349731;26;20340;-68
2024/04/17 10:14:17;;;;;;;4.70;2.00;;;;;;;6.62;100.00;101064.81;5348916;26;19999;-70
2024/04/17 10:16:42;;;;;;;4.50;1.90;;;;;;;7.10;100.00;101065.91;5348713;26;19997;-69
2024/04/17 10:19:09;;;;;;;4.00;2.00;;;;;;;7.70;100.00;101058.38;5349062;26;20443;-67
2024/04/17 10:21:35;;;;;;;4.28;1.90;;;;;;;8.25;100.00;101053.25;5349424;26;20001;-70
2024/04/17 10:24:09;;;;;;;5.15;1.90;;;;;;;9.38;100.00;101060.25;5347036;26;20020;-66
2024/04/17 10:26:41;;;;;;;5.75;1.90;;;;;;;10.79;100.00;101054.56;5348683;26;19993;-66
2024/04/17 10:29:34;;;;;;;2.55;1.70;;;;;;;12.15;100.00;101057.81;5342522;26;20003;-69
2024/04/17 10:32:03;;;;;;;2.65;1.85;;;;;;;13.19;100.00;101051.53;5380508;26;20012;-66
2024/04/17 10:34:30;;;;;;;1.70;1.60;;;;;;;14.79;100.00;101048.78;5349050;26;20000;-67
2024/04/17 10:37:01;;;;;;;2.25;1.30;;;;;;;15.05;100.00;101040.53;5349053;26;20040;-66
2024/04/17 10:39:27;;;;;;;3.20;1.45;;;;;;;15.68;100.00;101037.09;5346759;26;20020;-68
2024/04/17 10:41:53;;;;;;;1.77;1.30;;;;;;;16.75;100.00;101038.13;5347374;26;20008;-70
2024/04/17 10:44:19;;;;;;;3.45;1.58;;;;;;;17.07;100.00;101029.50;5348966;26;20025;-69
2024/04/17 10:46:45;;;;;;;2.33;1.40;;;;;;;17.63;100.00;101032.84;5348360;26;20008;-65
2024/04/17 10:49:17;;;;;;;5.03;1.50;;;;;;;18.50;100.00;101034.38;5347030;26;19993;-68
2024/04/17 10:51:44;;;;;;;2.03;1.50;;;;;;;18.09;100.00;101035.38;5343641;26;20073;-67
2024/04/17 10:54:13;;;;;;;4.97;1.50;;;;;;;17.51;100.00;101028.63;5348523;26;20001;-66
2024/04/17 10:56:39;;;;;;;1.40;1.30;;;;;;;18.42;100.00;101029.22;5348862;26;20394;-66
2024/04/17 10:59:04;;;;;;;4.43;1.70;;;;;;;19.32;100.00;101016.97;5348232;26;20005;-67
2024/04/17 11:01:30;;;;;;;2.78;1.58;;;;;;;19.27;100.00;101018.94;5348229;26;20340;-65
2024/04/17 11:03:59;;;;;;;1.67;1.40;;;;;;;19.48;100.00;101020.09;5348701;26;20001;-66
2024/04/17 11:06:24;;;;;;;3.83;1.35;;;;;;;19.44;98.97;101016.63;5348333;26;20004;-69
2024/04/17 11:08:54;;;;;;;1.73;1.30;;;;;;;19.99;100.00;101024.81;5346552;26;20321;-70
2024/04/17 11:11:21;;;;;;;2.08;1.23;;;;;;;20.03;100.00;101020.22;5346849;26;20001;-67